createdAt,value
2023-10-23T00:23:16.081Z,75.52
2023-10-23T00:53:16.072Z,75.76
2023-10-23T01:23:16.096Z,76.19
2023-10-23T01:53:16.101Z,76.48
2023-10-23T02:23:19.102Z,77.07
2023-10-23T02:53:16.103Z,76.78
2023-10-23T03:23:16.104Z,76.94
2023-10-23T03:53:16.134Z,77.2
2023-10-23T04:23:16.152Z,77.47
2023-10-23T04:53:16.219Z,77.47
2023-10-23T05:23:16.174Z,77.64
2023-10-23T05:53:16.151Z,77.85
2023-10-23T06:23:16.145Z,77.86
2023-10-23T06:53:16.135Z,78.16
2023-10-23T07:23:16.154Z,78.33
2023-10-23T07:53:16.144Z,78.41
2023-10-23T08:23:16.148Z,78.32
2023-10-23T08:53:16.168Z,78.16
2023-10-23T09:23:16.144Z,77.58
2023-10-23T09:53:16.157Z,77.32
2023-10-23T10:23:16.171Z,76.49
2023-10-23T10:53:16.168Z,75.42
2023-10-23T11:23:16.175Z,74.68
2023-10-23T11:53:16.195Z,73.86
2023-10-23T12:23:16.183Z,73.06
2023-10-23T12:53:16.200Z,72.5
2023-10-23T13:23:16.197Z,72.5
2023-10-23T13:53:16.204Z,72.56
2023-10-23T14:23:16.210Z,72.53
2023-10-23T14:53:16.217Z,72.26
2023-10-23T15:53:16.242Z,72.66
2023-10-23T16:23:16.240Z,72.99
2023-10-23T16:53:16.244Z,74.36
2023-10-23T17:23:16.248Z,75.09
2023-10-23T17:53:16.257Z,75.49
2023-10-23T18:23:16.265Z,75.8
2023-10-23T18:53:16.263Z,76.1
2023-10-23T19:23:16.255Z,76.46
2023-10-23T19:53:16.398Z,76.63
2023-10-23T20:23:16.321Z,76.81
2023-10-23T20:53:16.300Z,76.93
2023-10-23T21:23:16.300Z,77.13
2023-10-23T21:53:16.324Z,77.49
2023-10-23T22:23:16.324Z,77.76
2023-10-23T22:53:16.341Z,77.62
2023-10-23T23:23:16.347Z,77.97
2023-10-23T23:53:16.317Z,78
